sensor_id;sensor_type;location;lat;lon;timestamp;P1;durP1;ratioP1;P2;durP2;ratioP2
21621;SDS011;10973;46.706;12.340;2023-09-12T00:01:18;8.27;;;5.97;;
21621;SDS011;10973;46.706;12.340;2023-09-12T00:03:46;8.57;;;6.30;;
21621;SDS011;10973;46.706;12.340;2023-09-12T00:06:14;8.67;;;6.00;;
21621;SDS011;10973;46.706;12.340;2023-09-12T00:08:41;7.97;;;6.70;;
21621;SDS011;10973;46.706;12.340;2023-09-12T00:11:10;12.37;;;6.63;;
21621;SDS011;10973;46.706;12.340;2023-09-12T00:13:38;9.23;;;6.40;;
21621;SDS011;10973;46.706;12.340;2023-09-12T00:16:07;7.27;;;6.53;;
21621;SDS011;10973;46.706;12.340;2023-09-12T00:18:35;9.63;;;6.53;;
21621;SDS011;10973;46.706;12.340;2023-09-12T00:21:04;9.17;;;6.77;;
21621;SDS011;10973;46.706;12.340;2023-09-12T00:23:31;7.77;;;6.50;;
21621;SDS011;10973;46.706;12.340;2023-09-12T00:25:59;8.50;;;6.50;;
21621;SDS011;10973;46.706;12.340;2023-09-12T00:28:26;9.33;;;6.53;;
21621;SDS011;10973;46.706;12.340;2023-09-12T00:30:54;8.40;;;6.60;;
21621;SDS011;10973;46.706;12.340;2023-09-12T00:33:22;8.70;;;6.57;;
21621;SDS011;10973;46.706;12.340;2023-09-12T00:35:49;7.67;;;6.63;;
21621;SDS011;10973;46.706;12.340;2023-09-12T00:38:18;7.50;;;6.70;;
21621;SDS011;10973;46.706;12.340;2023-09-12T00:40:45;8.83;;;6.53;;
21621;SDS011;10973;46.706;12.340;2023-09-12T00:43:13;9.13;;;6.10;;
21621;SDS011;10973;46.706;12.340;2023-09-12T00:45:41;11.23;;;6.27;;
21621;SDS011;10973;46.706;12.340;2023-09-12T00:48:09;8.33;;;6.40;;
21621;SDS011;10973;46.706;12.340;2023-09-12T00:50:39;8.30;;;6.60;;
21621;SDS011;10973;46.706;12.340;2023-09-12T00:53:10;8.47;;;6.13;;
21621;SDS011;10973;46.706;12.340;2023-09-12T00:55:38;9.57;;;6.50;;
21621;SDS011;10973;46.706;12.340;2023-09-12T00:58:12;8.00;;;6.43;;
21621;SDS011;10973;46.706;12.340;2023-09-12T01:00:43;11.77;;;6.77;;
21621;SDS011;10973;46.706;12.340;2023-09-12T01:03:10;8.43;;;6.07;;
21621;SDS011;10973;46.706;12.340;2023-09-12T01:05:40;9.03;;;6.60;;
21621;SDS011;10973;46.706;12.340;2023-09-12T01:08:29;7.77;;;6.43;;
21621;SDS011;10973;46.706;12.340;2023-09-12T01:10:57;9.60;;;6.37;;
21621;SDS011;10973;46.706;12.340;2023-09-12T01:13:25;7.10;;;6.40;;
21621;SDS011;10973;46.706;12.340;2023-09-12T01:15:53;9.27;;;6.90;;
21621;SDS011;10973;46.706;12.340;2023-09-12T01:18:21;7.13;;;6.03;;
21621;SDS011;10973;46.706;12.340;2023-09-12T01:24:13;7.13;;;6.40;;
21621;SDS011;10973;46.706;12.340;2023-09-12T01:27:22;9.40;;;6.40;;
21621;SDS011;10973;46.706;12.340;2023-09-12T01:29:59;7.67;;;6.40;;
21621;SDS011;10973;46.706;12.340;2023-09-12T01:32:32;8.33;;;6.30;;
21621;SDS011;10973;46.706;12.340;2023-09-12T01:35:02;10.27;;;6.90;;
21621;SDS011;10973;46.706;12.340;2023-09-12T01:37:33;11.07;;;6.40;;
21621;SDS011;10973;46.706;12.340;2023-09-12T01:40:00;8.10;;;6.67;;
21621;SDS011;10973;46.706;12.340;2023-09-12T01:42:36;6.97;;;6.33;;
21621;SDS011;10973;46.706;12.340;2023-09-12T01:45:13;8.17;;;6.07;;
21621;SDS011;10973;46.706;12.340;2023-09-12T01:47:48;8.07;;;6.20;;
21621;SDS011;10973;46.706;12.340;2023-09-12T01:50:17;10.27;;;6.70;;
21621;SDS011;10973;46.706;12.340;2023-09-12T01:52:46;7.37;;;6.00;;
21621;SDS011;10973;46.706;12.340;2023-09-12T01:55:16;8.47;;;6.43;;
21621;SDS011;10973;46.706;12.340;2023-09-12T01:57:45;8.50;;;5.77;;
21621;SDS011;10973;46.706;12.340;2023-09-12T02:00:14;8.27;;;6.43;;
21621;SDS011;10973;46.706;12.340;2023-09-12T02:02:45;10.60;;;6.60;;
21621;SDS011;10973;46.706;12.340;2023-09-12T02:05:18;9.77;;;6.33;;
21621;SDS011;10973;46.706;12.340;2023-09-12T02:07:49;8.10;;;6.63;;
21621;SDS011;10973;46.706;12.340;2023-09-12T02:10:16;10.17;;;6.27;;
21621;SDS011;10973;46.706;12.340;2023-09-12T02:12:44;6.97;;;6.17;;
21621;SDS011;10973;46.706;12.340;2023-09-12T02:15:15;8.93;;;7.53;;
21621;SDS011;10973;46.706;12.340;2023-09-12T02:17:45;7.20;;;6.50;;
21621;SDS011;10973;46.706;12.340;2023-09-12T02:20:13;9.23;;;6.30;;
21621;SDS011;10973;46.706;12.340;2023-09-12T02:22:41;9.10;;;6.93;;
21621;SDS011;10973;46.706;12.340;2023-09-12T02:25:09;8.60;;;6.90;;
21621;SDS011;10973;46.706;12.340;2023-09-12T02:27:36;6.83;;;6.13;;
21621;SDS011;10973;46.706;12.340;2023-09-12T02:30:04;7.93;;;7.13;;
21621;SDS011;10973;46.706;12.340;2023-09-12T02:32:32;6.83;;;6.20;;
21621;SDS011;10973;46.706;12.340;2023-09-12T02:35:00;7.53;;;6.30;;
21621;SDS011;10973;46.706;12.340;2023-09-12T02:37:28;9.53;;;6.60;;
21621;SDS011;10973;46.706;12.340;2023-09-12T02:39:55;6.93;;;6.20;;
21621;SDS011;10973;46.706;12.340;2023-09-12T02:42:23;7.97;;;6.57;;
21621;SDS011;10973;46.706;12.340;2023-09-12T02:44:50;11.50;;;6.53;;
21621;SDS011;10973;46.706;12.340;2023-09-12T02:47:18;8.87;;;6.30;;
21621;SDS011;10973;46.706;12.340;2023-09-12T02:49:46;7.60;;;5.97;;
21621;SDS011;10973;46.706;12.340;2023-09-12T02:52:13;10.43;;;6.70;;
21621;SDS011;10973;46.706;12.340;2023-09-12T02:54:41;11.27;;;6.80;;
21621;SDS011;10973;46.706;12.340;2023-09-12T02:57:08;7.10;;;6.33;;
21621;SDS011;10973;46.706;12.340;2023-09-12T02:59:36;7.00;;;6.30;;
21621;SDS011;10973;46.706;12.340;2023-09-12T03:02:03;8.37;;;6.07;;
21621;SDS011;10973;46.706;12.340;2023-09-12T03:04:32;10.57;;;7.03;;
21621;SDS011;10973;46.706;12.340;2023-09-12T03:07:02;10.30;;;6.53;;
21621;SDS011;10973;46.706;12.340;2023-09-12T03:09:30;12.87;;;6.97;;
21621;SDS011;10973;46.706;12.340;2023-09-12T03:11:57;8.37;;;7.00;;
21621;SDS011;10973;46.706;12.340;2023-09-12T03:14:28;10.50;;;7.00;;
21621;SDS011;10973;46.706;12.340;2023-09-12T03:16:55;10.50;;;6.80;;
21621;SDS011;10973;46.706;12.340;2023-09-12T03:19:23;8.43;;;6.87;;
21621;SDS011;10973;46.706;12.340;2023-09-12T03:21:50;8.60;;;6.57;;
21621;SDS011;10973;46.706;12.340;2023-09-12T03:24:18;6.93;;;6.23;;
21621;SDS011;10973;46.706;12.340;2023-09-12T03:26:45;8.00;;;6.17;;
21621;SDS011;10973;46.706;12.340;2023-09-12T03:29:13;7.43;;;6.60;;
21621;SDS011;10973;46.706;12.340;2023-09-12T03:31:40;12.13;;;7.03;;
21621;SDS011;10973;46.706;12.340;2023-09-12T03:34:08;8.23;;;6.50;;
21621;SDS011;10973;46.706;12.340;2023-09-12T03:36:35;7.90;;;6.57;;
21621;SDS011;10973;46.706;12.340;2023-09-12T03:39:03;7.10;;;6.37;;
21621;SDS011;10973;46.706;12.340;2023-09-12T03:41:30;9.53;;;7.03;;
21621;SDS011;10973;46.706;12.340;2023-09-12T03:43:58;7.83;;;6.87;;
21621;SDS011;10973;46.706;12.340;2023-09-12T03:46:25;10.03;;;6.97;;
21621;SDS011;10973;46.706;12.340;2023-09-12T03:48:53;8.53;;;6.33;;
21621;SDS011;10973;46.706;12.340;2023-09-12T03:51:20;7.53;;;6.63;;
21621;SDS011;10973;46.706;12.340;2023-09-12T03:53:48;8.77;;;6.80;;
21621;SDS011;10973;46.706;12.340;2023-09-12T03:56:16;7.90;;;6.80;;
21621;SDS011;10973;46.706;12.340;2023-09-12T03:58:44;9.93;;;6.83;;
21621;SDS011;10973;46.706;12.340;2023-09-12T04:01:11;8.37;;;7.17;;
21621;SDS011;10973;46.706;12.340;2023-09-12T04:03:39;10.50;;;6.50;;
21621;SDS011;10973;46.706;12.340;2023-09-12T04:06:06;9.27;;;6.60;;
21621;SDS011;10973;46.706;12.340;2023-09-12T04:08:34;7.83;;;6.80;;
21621;SDS011;10973;46.706;12.340;2023-09-12T04:11:01;8.70;;;7.70;;
21621;SDS011;10973;46.706;12.340;2023-09-12T04:13:29;8.93;;;7.20;;
21621;SDS011;10973;46.706;12.340;2023-09-12T04:15:56;7.97;;;7.10;;
21621;SDS011;10973;46.706;12.340;2023-09-12T04:18:24;14.63;;;7.57;;
21621;SDS011;10973;46.706;12.340;2023-09-12T04:20:53;12.77;;;8.13;;
21621;SDS011;10973;46.706;12.340;2023-09-12T04:23:20;9.07;;;7.80;;
21621;SDS011;10973;46.706;12.340;2023-09-12T04:25:48;14.30;;;7.77;;
21621;SDS011;10973;46.706;12.340;2023-09-12T04:28:15;13.07;;;7.93;;
21621;SDS011;10973;46.706;12.340;2023-09-12T04:30:43;12.70;;;8.33;;
21621;SDS011;10973;46.706;12.340;2023-09-12T04:33:12;13.50;;;8.23;;
21621;SDS011;10973;46.706;12.340;2023-09-12T04:35:40;13.80;;;7.60;;
21621;SDS011;10973;46.706;12.340;2023-09-12T04:38:07;9.90;;;7.23;;
21621;SDS011;10973;46.706;12.340;2023-09-12T04:40:35;9.90;;;7.00;;
21621;SDS011;10973;46.706;12.340;2023-09-12T04:43:03;11.70;;;7.73;;
21621;SDS011;10973;46.706;12.340;2023-09-12T04:45:32;13.80;;;8.43;;
21621;SDS011;10973;46.706;12.340;2023-09-12T04:48:00;13.27;;;7.90;;
21621;SDS011;10973;46.706;12.340;2023-09-12T04:50:28;13.60;;;9.07;;
21621;SDS011;10973;46.706;12.340;2023-09-12T04:52:55;11.10;;;8.90;;
21621;SDS011;10973;46.706;12.340;2023-09-12T04:55:23;13.77;;;8.30;;
21621;SDS011;10973;46.706;12.340;2023-09-12T04:57:50;12.23;;;7.60;;
21621;SDS011;10973;46.706;12.340;2023-09-12T05:00:17;10.80;;;7.60;;
21621;SDS011;10973;46.706;12.340;2023-09-12T05:02:45;12.97;;;8.23;;
21621;SDS011;10973;46.706;12.340;2023-09-12T05:05:12;11.67;;;8.27;;
21621;SDS011;10973;46.706;12.340;2023-09-12T05:07:40;14.37;;;7.57;;
21621;SDS011;10973;46.706;12.340;2023-09-12T05:10:08;12.23;;;7.53;;
21621;SDS011;10973;46.706;12.340;2023-09-12T05:12:35;9.80;;;7.43;;
21621;SDS011;10973;46.706;12.340;2023-09-12T05:15:03;10.13;;;7.50;;
21621;SDS011;10973;46.706;12.340;2023-09-12T05:17:34;14.20;;;7.87;;
21621;SDS011;10973;46.706;12.340;2023-09-12T05:20:02;10.17;;;8.00;;
21621;SDS011;10973;46.706;12.340;2023-09-12T05:22:33;11.50;;;8.30;;
21621;SDS011;10973;46.706;12.340;2023-09-12T05:25:01;10.27;;;7.30;;
21621;SDS011;10973;46.706;12.340;2023-09-12T05:27:28;12.27;;;8.20;;
21621;SDS011;10973;46.706;12.340;2023-09-12T05:29:56;14.57;;;7.70;;
21621;SDS011;10973;46.706;12.340;2023-09-12T05:32:23;37.23;;;9.60;;
21621;SDS011;10973;46.706;12.340;2023-09-12T05:34:51;30.33;;;9.13;;
21621;SDS011;10973;46.706;12.340;2023-09-12T05:37:32;31.10;;;9.30;;
21621;SDS011;10973;46.706;12.340;2023-09-12T05:39:59;17.10;;;8.63;;
21621;SDS011;10973;46.706;12.340;2023-09-12T05:42:27;8.70;;;7.73;;
21621;SDS011;10973;46.706;12.340;2023-09-12T05:44:54;15.17;;;7.90;;
21621;SDS011;10973;46.706;12.340;2023-09-12T05:47:22;33.60;;;10.23;;
21621;SDS011;10973;46.706;12.340;2023-09-12T05:49:50;20.13;;;9.47;;
21621;SDS011;10973;46.706;12.340;2023-09-12T05:52:17;34.10;;;9.63;;
21621;SDS011;10973;46.706;12.340;2023-09-12T05:54:44;21.33;;;9.43;;
21621;SDS011;10973;46.706;12.340;2023-09-12T06:01:22;32.83;;;9.47;;
21621;SDS011;10973;46.706;12.340;2023-09-12T06:03:49;24.17;;;9.77;;
21621;SDS011;10973;46.706;12.340;2023-09-12T06:06:17;29.13;;;9.53;;
21621;SDS011;10973;46.706;12.340;2023-09-12T06:08:45;29.73;;;10.47;;
21621;SDS011;10973;46.706;12.340;2023-09-12T06:11:12;30.00;;;10.47;;
21621;SDS011;10973;46.706;12.340;2023-09-12T06:13:40;28.03;;;10.37;;
21621;SDS011;10973;46.706;12.340;2023-09-12T06:16:07;25.73;;;9.80;;
21621;SDS011;10973;46.706;12.340;2023-09-12T06:18:35;24.07;;;10.17;;
21621;SDS011;10973;46.706;12.340;2023-09-12T06:21:02;21.97;;;11.10;;
21621;SDS011;10973;46.706;12.340;2023-09-12T06:23:30;20.20;;;10.80;;
21621;SDS011;10973;46.706;12.340;2023-09-12T06:25:57;18.90;;;10.93;;
21621;SDS011;10973;46.706;12.340;2023-09-12T06:28:28;14.97;;;10.57;;
21621;SDS011;10973;46.706;12.340;2023-09-12T06:30:57;13.57;;;11.27;;
21621;SDS011;10973;46.706;12.340;2023-09-12T06:33:25;23.30;;;11.23;;
21621;SDS011;10973;46.706;12.340;2023-09-12T06:35:53;14.53;;;10.97;;
21621;SDS011;10973;46.706;12.340;2023-09-12T06:38:21;18.37;;;10.47;;
21621;SDS011;10973;46.706;12.340;2023-09-12T06:40:49;19.27;;;10.93;;
21621;SDS011;10973;46.706;12.340;2023-09-12T06:43:17;43.80;;;12.70;;
21621;SDS011;10973;46.706;12.340;2023-09-12T06:45:45;20.70;;;10.13;;
21621;SDS011;10973;46.706;12.340;2023-09-12T06:48:12;23.90;;;10.13;;
21621;SDS011;10973;46.706;12.340;2023-09-12T06:50:40;11.33;;;10.17;;
21621;SDS011;10973;46.706;12.340;2023-09-12T06:53:10;13.57;;;9.77;;
21621;SDS011;10973;46.706;12.340;2023-09-12T06:55:37;16.87;;;9.87;;
21621;SDS011;10973;46.706;12.340;2023-09-12T06:58:04;12.73;;;9.07;;
21621;SDS011;10973;46.706;12.340;2023-09-12T07:00:32;13.60;;;10.40;;
21621;SDS011;10973;46.706;12.340;2023-09-12T07:03:00;14.97;;;9.60;;
21621;SDS011;10973;46.706;12.340;2023-09-12T07:05:27;19.50;;;10.43;;
21621;SDS011;10973;46.706;12.340;2023-09-12T07:07:55;19.67;;;10.27;;
21621;SDS011;10973;46.706;12.340;2023-09-12T07:10:23;19.40;;;10.33;;
21621;SDS011;10973;46.706;12.340;2023-09-12T07:12:54;14.97;;;9.77;;
21621;SDS011;10973;46.706;12.340;2023-09-12T07:15:21;33.40;;;10.40;;
21621;SDS011;10973;46.706;12.340;2023-09-12T07:17:49;31.97;;;11.20;;
21621;SDS011;10973;46.706;12.340;2023-09-12T07:20:17;12.90;;;9.70;;
21621;SDS011;10973;46.706;12.340;2023-09-12T07:22:44;13.97;;;9.57;;
21621;SDS011;10973;46.706;12.340;2023-09-12T07:25:13;11.97;;;9.83;;
21621;SDS011;10973;46.706;12.340;2023-09-12T07:27:41;13.63;;;9.63;;
21621;SDS011;10973;46.706;12.340;2023-09-12T07:30:09;14.10;;;9.67;;
21621;SDS011;10973;46.706;12.340;2023-09-12T07:32:37;13.97;;;9.40;;
21621;SDS011;10973;46.706;12.340;2023-09-12T07:35:05;13.03;;;10.10;;
21621;SDS011;10973;46.706;12.340;2023-09-12T07:37:33;10.73;;;9.63;;
21621;SDS011;10973;46.706;12.340;2023-09-12T07:40:01;14.00;;;9.93;;
21621;SDS011;10973;46.706;12.340;2023-09-12T07:42:28;12.23;;;9.57;;
21621;SDS011;10973;46.706;12.340;2023-09-12T07:44:56;12.53;;;9.73;;
21621;SDS011;10973;46.706;12.340;2023-09-12T07:47:23;10.70;;;9.40;;
21621;SDS011;10973;46.706;12.340;2023-09-12T07:49:54;11.60;;;9.23;;
21621;SDS011;10973;46.706;12.340;2023-09-12T07:52:22;11.83;;;9.20;;
21621;SDS011;10973;46.706;12.340;2023-09-12T07:54:50;13.47;;;8.80;;
21621;SDS011;10973;46.706;12.340;2023-09-12T07:57:17;15.27;;;8.53;;
21621;SDS011;10973;46.706;12.340;2023-09-12T07:59:46;14.20;;;9.63;;
21621;SDS011;10973;46.706;12.340;2023-09-12T08:02:14;15.30;;;9.30;;
21621;SDS011;10973;46.706;12.340;2023-09-12T08:04:41;24.57;;;10.47;;
21621;SDS011;10973;46.706;12.340;2023-09-12T08:07:09;15.73;;;8.93;;
21621;SDS011;10973;46.706;12.340;2023-09-12T08:09:50;13.03;;;8.03;;
21621;SDS011;10973;46.706;12.340;2023-09-12T08:12:21;14.63;;;8.50;;
21621;SDS011;10973;46.706;12.340;2023-09-12T08:14:51;13.63;;;9.00;;
21621;SDS011;10973;46.706;12.340;2023-09-12T08:17:19;16.53;;;8.67;;
21621;SDS011;10973;46.706;12.340;2023-09-12T08:19:46;14.90;;;8.80;;
21621;SDS011;10973;46.706;12.340;2023-09-12T08:22:14;11.33;;;7.83;;
21621;SDS011;10973;46.706;12.340;2023-09-12T08:24:42;13.80;;;8.20;;
21621;SDS011;10973;46.706;12.340;2023-09-12T08:27:10;17.77;;;8.10;;
21621;SDS011;10973;46.706;12.340;2023-09-12T08:29:38;11.73;;;8.40;;
21621;SDS011;10973;46.706;12.340;2023-09-12T08:32:05;9.83;;;8.13;;
21621;SDS011;10973;46.706;12.340;2023-09-12T08:34:33;11.53;;;8.40;;
21621;SDS011;10973;46.706;12.340;2023-09-12T08:37:00;14.47;;;8.97;;
21621;SDS011;10973;46.706;12.340;2023-09-12T08:39:38;13.87;;;8.50;;
21621;SDS011;10973;46.706;12.340;2023-09-12T08:42:12;11.60;;;8.13;;
21621;SDS011;10973;46.706;12.340;2023-09-12T08:44:42;15.50;;;8.60;;
21621;SDS011;10973;46.706;12.340;2023-09-12T08:47:10;14.97;;;8.07;;
21621;SDS011;10973;46.706;12.340;2023-09-12T08:49:39;9.57;;;8.50;;
21621;SDS011;10973;46.706;12.340;2023-09-12T08:52:07;12.07;;;8.70;;
21621;SDS011;10973;46.706;12.340;2023-09-12T08:54:34;12.80;;;8.80;;
21621;SDS011;10973;46.706;12.340;2023-09-12T08:57:02;13.73;;;9.13;;
21621;SDS011;10973;46.706;12.340;2023-09-12T08:59:32;18.87;;;9.23;;
21621;SDS011;10973;46.706;12.340;2023-09-12T09:02:01;15.43;;;8.70;;
21621;SDS011;10973;46.706;12.340;2023-09-12T09:04:34;14.63;;;9.00;;
21621;SDS011;10973;46.706;12.340;2023-09-12T09:07:04;18.57;;;9.17;;
21621;SDS011;10973;46.706;12.340;2023-09-12T09:09:32;13.50;;;8.93;;
21621;SDS011;10973;46.706;12.340;2023-09-12T09:12:00;11.95;;;8.15;;
21621;SDS011;10973;46.706;12.340;2023-09-12T09:14:29;9.23;;;8.20;;
21621;SDS011;10973;46.706;12.340;2023-09-12T09:16:57;10.67;;;8.30;;
21621;SDS011;10973;46.706;12.340;2023-09-12T09:19:41;10.57;;;8.87;;
21621;SDS011;10973;46.706;12.340;2023-09-12T09:22:10;11.73;;;8.90;;
21621;SDS011;10973;46.706;12.340;2023-09-12T09:24:38;9.35;;;8.05;;
21621;SDS011;10973;46.706;12.340;2023-09-12T09:27:06;10.02;;;8.57;;
21621;SDS011;10973;46.706;12.340;2023-09-12T09:29:45;11.87;;;9.20;;
21621;SDS011;10973;46.706;12.340;2023-09-12T09:32:17;13.55;;;8.27;;
21621;SDS011;10973;46.706;12.340;2023-09-12T09:34:45;11.45;;;8.20;;
21621;SDS011;10973;46.706;12.340;2023-09-12T09:37:12;11.20;;;9.27;;
21621;SDS011;10973;46.706;12.340;2023-09-12T09:39:40;13.45;;;8.80;;
21621;SDS011;10973;46.706;12.340;2023-09-12T09:42:09;12.18;;;9.13;;
21621;SDS011;10973;46.706;12.340;2023-09-12T09:44:37;10.90;;;8.20;;
21621;SDS011;10973;46.706;12.340;2023-09-12T09:47:05;11.30;;;8.23;;
21621;SDS011;10973;46.706;12.340;2023-09-12T09:49:34;14.32;;;8.63;;
21621;SDS011;10973;46.706;12.340;2023-09-12T09:52:05;10.98;;;8.70;;
21621;SDS011;10973;46.706;12.340;2023-09-12T09:54:32;13.35;;;9.13;;
21621;SDS011;10973;46.706;12.340;2023-09-12T09:57:00;18.73;;;9.20;;
21621;SDS011;10973;46.706;12.340;2023-09-12T09:59:27;12.57;;;8.90;;
21621;SDS011;10973;46.706;12.340;2023-09-12T10:01:58;10.50;;;8.18;;
21621;SDS011;10973;46.706;12.340;2023-09-12T10:04:27;14.38;;;8.73;;
21621;SDS011;10973;46.706;12.340;2023-09-12T10:06:56;10.25;;;8.10;;
21621;SDS011;10973;46.706;12.340;2023-09-12T10:09:26;14.38;;;7.97;;
21621;SDS011;10973;46.706;12.340;2023-09-12T10:11:54;16.52;;;8.70;;
21621;SDS011;10973;46.706;12.340;2023-09-12T10:14:24;12.68;;;8.13;;
21621;SDS011;10973;46.706;12.340;2023-09-12T10:16:57;12.45;;;7.93;;
21621;SDS011;10973;46.706;12.340;2023-09-12T10:19:41;9.63;;;8.07;;
21621;SDS011;10973;46.706;12.340;2023-09-12T10:22:25;10.93;;;8.18;;
21621;SDS011;10973;46.706;12.340;2023-09-12T10:25:01;9.05;;;7.38;;
21621;SDS011;10973;46.706;12.340;2023-09-12T10:27:29;11.18;;;7.93;;
21621;SDS011;10973;46.706;12.340;2023-09-12T10:29:58;8.10;;;7.28;;
21621;SDS011;10973;46.706;12.340;2023-09-12T10:32:26;8.48;;;7.68;;
21621;SDS011;10973;46.706;12.340;2023-09-12T10:34:57;10.98;;;6.93;;
21621;SDS011;10973;46.706;12.340;2023-09-12T10:37:26;7.95;;;7.18;;
21621;SDS011;10973;46.706;12.340;2023-09-12T10:39:56;7.32;;;5.75;;
21621;SDS011;10973;46.706;12.340;2023-09-12T10:42:26;8.45;;;6.90;;
21621;SDS011;10973;46.706;12.340;2023-09-12T10:44:55;8.40;;;6.68;;
21621;SDS011;10973;46.706;12.340;2023-09-12T10:47:26;11.98;;;6.78;;
21621;SDS011;10973;46.706;12.340;2023-09-12T10:49:55;9.48;;;6.40;;
21621;SDS011;10973;46.706;12.340;2023-09-12T10:52:27;9.73;;;6.28;;
21621;SDS011;10973;46.706;12.340;2023-09-12T10:54:55;9.23;;;6.50;;
21621;SDS011;10973;46.706;12.340;2023-09-12T10:57:23;11.35;;;6.55;;
21621;SDS011;10973;46.706;12.340;2023-09-12T11:02:35;13.70;;;7.07;;
21621;SDS011;10973;46.706;12.340;2023-09-12T11:05:06;18.33;;;7.25;;
21621;SDS011;10973;46.706;12.340;2023-09-12T11:07:57;16.60;;;6.78;;
21621;SDS011;10973;46.706;12.340;2023-09-12T11:10:27;10.80;;;6.95;;
21621;SDS011;10973;46.706;12.340;2023-09-12T11:12:55;9.88;;;6.35;;
21621;SDS011;10973;46.706;12.340;2023-09-12T11:15:24;9.30;;;6.75;;
21621;SDS011;10973;46.706;12.340;2023-09-12T11:18:03;11.45;;;7.18;;
21621;SDS011;10973;46.706;12.340;2023-09-12T11:21:06;11.82;;;6.85;;
21621;SDS011;10973;46.706;12.340;2023-09-12T11:23:27;7.38;;;6.05;;
21621;SDS011;10973;46.706;12.340;2023-09-12T11:28:33;14.32;;;6.63;;
21621;SDS011;10973;46.706;12.340;2023-09-12T11:31:01;9.32;;;6.60;;
21621;SDS011;10973;46.706;12.340;2023-09-12T11:33:29;7.75;;;6.20;;
21621;SDS011;10973;46.706;12.340;2023-09-12T11:35:59;9.30;;;6.70;;
21621;SDS011;10973;46.706;12.340;2023-09-12T11:38:29;12.50;;;6.43;;
21621;SDS011;10973;46.706;12.340;2023-09-12T11:40:58;10.90;;;6.40;;
21621;SDS011;10973;46.706;12.340;2023-09-12T11:43:27;6.88;;;5.93;;
21621;SDS011;10973;46.706;12.340;2023-09-12T11:45:57;12.50;;;5.90;;
21621;SDS011;10973;46.706;12.340;2023-09-12T11:48:24;8.18;;;5.90;;
21621;SDS011;10973;46.706;12.340;2023-09-12T11:50:55;11.23;;;6.18;;
21621;SDS011;10973;46.706;12.340;2023-09-12T11:53:24;12.32;;;6.13;;
21621;SDS011;10973;46.706;12.340;2023-09-12T11:55:55;11.43;;;6.13;;
21621;SDS011;10973;46.706;12.340;2023-09-12T11:58:25;12.98;;;6.70;;
21621;SDS011;10973;46.706;12.340;2023-09-12T12:00:54;13.43;;;5.85;;
21621;SDS011;10973;46.706;12.340;2023-09-12T12:03:25;18.25;;;6.90;;
21621;SDS011;10973;46.706;12.340;2023-09-12T12:05:55;12.60;;;6.03;;
21621;SDS011;10973;46.706;12.340;2023-09-12T12:08:24;11.88;;;6.03;;
21621;SDS011;10973;46.706;12.340;2023-09-12T12:10:56;13.13;;;6.55;;
21621;SDS011;10973;46.706;12.340;2023-09-12T12:13:23;10.25;;;5.88;;
21621;SDS011;10973;46.706;12.340;2023-09-12T12:15:51;8.02;;;5.70;;
21621;SDS011;10973;46.706;12.340;2023-09-12T12:18:19;8.73;;;6.07;;
21621;SDS011;10973;46.706;12.340;2023-09-12T12:20:46;9.18;;;5.68;;
21621;SDS011;10973;46.706;12.340;2023-09-12T12:23:14;8.35;;;5.55;;
21621;SDS011;10973;46.706;12.340;2023-09-12T12:25:42;6.90;;;5.82;;
21621;SDS011;10973;46.706;12.340;2023-09-12T12:28:09;10.80;;;5.95;;
21621;SDS011;10973;46.706;12.340;2023-09-12T12:30:37;8.85;;;6.10;;
21621;SDS011;10973;46.706;12.340;2023-09-12T12:33:09;9.73;;;6.00;;
21621;SDS011;10973;46.706;12.340;2023-09-12T12:36:03;7.50;;;5.57;;
21621;SDS011;10973;46.706;12.340;2023-09-12T12:38:36;6.32;;;5.10;;
21621;SDS011;10973;46.706;12.340;2023-09-12T12:41:29;9.98;;;6.18;;
21621;SDS011;10973;46.706;12.340;2023-09-12T12:44:12;9.23;;;5.75;;
21621;SDS011;10973;46.706;12.340;2023-09-12T12:46:50;8.15;;;6.10;;
21621;SDS011;10973;46.706;12.340;2023-09-12T12:49:19;13.25;;;6.10;;
21621;SDS011;10973;46.706;12.340;2023-09-12T12:51:48;9.07;;;5.60;;
21621;SDS011;10973;46.706;12.340;2023-09-12T12:54:16;7.60;;;5.43;;
21621;SDS011;10973;46.706;12.340;2023-09-12T12:56:43;13.27;;;5.85;;
21621;SDS011;10973;46.706;12.340;2023-09-12T12:59:11;10.18;;;6.38;;
21621;SDS011;10973;46.706;12.340;2023-09-12T13:01:39;10.77;;;5.88;;
21621;SDS011;10973;46.706;12.340;2023-09-12T13:04:09;12.07;;;6.18;;
21621;SDS011;10973;46.706;12.340;2023-09-12T13:06:37;8.10;;;6.10;;
21621;SDS011;10973;46.706;12.340;2023-09-12T13:09:05;10.40;;;5.72;;
21621;SDS011;10973;46.706;12.340;2023-09-12T13:11:33;12.52;;;5.65;;
21621;SDS011;10973;46.706;12.340;2023-09-12T13:14:01;7.30;;;5.68;;
21621;SDS011;10973;46.706;12.340;2023-09-12T13:16:30;13.43;;;6.15;;
21621;SDS011;10973;46.706;12.340;2023-09-12T13:18:58;9.35;;;6.50;;
21621;SDS011;10973;46.706;12.340;2023-09-12T13:21:25;10.63;;;5.78;;
21621;SDS011;10973;46.706;12.340;2023-09-12T13:23:53;13.40;;;5.88;;
21621;SDS011;10973;46.706;12.340;2023-09-12T13:26:20;6.70;;;6.00;;
21621;SDS011;10973;46.706;12.340;2023-09-12T13:28:48;11.57;;;6.35;;
21621;SDS011;10973;46.706;12.340;2023-09-12T13:31:15;6.28;;;5.50;;
21621;SDS011;10973;46.706;12.340;2023-09-12T13:33:43;9.98;;;5.97;;
21621;SDS011;10973;46.706;12.340;2023-09-12T13:36:11;12.88;;;6.28;;
21621;SDS011;10973;46.706;12.340;2023-09-12T13:38:38;7.38;;;6.40;;
21621;SDS011;10973;46.706;12.340;2023-09-12T13:41:06;11.52;;;5.82;;
21621;SDS011;10973;46.706;12.340;2023-09-12T13:43:34;9.77;;;5.65;;
21621;SDS011;10973;46.706;12.340;2023-09-12T13:46:01;9.13;;;5.93;;
21621;SDS011;10973;46.706;12.340;2023-09-12T13:48:28;7.95;;;5.72;;
21621;SDS011;10973;46.706;12.340;2023-09-12T13:50:56;12.30;;;5.38;;
21621;SDS011;10973;46.706;12.340;2023-09-12T13:53:23;6.15;;;4.65;;
21621;SDS011;10973;46.706;12.340;2023-09-12T13:55:51;6.97;;;5.68;;
21621;SDS011;10973;46.706;12.340;2023-09-12T13:58:38;5.90;;;5.22;;
21621;SDS011;10973;46.706;12.340;2023-09-12T14:01:13;9.95;;;5.68;;
21621;SDS011;10973;46.706;12.340;2023-09-12T14:03:57;7.22;;;5.28;;
21621;SDS011;10973;46.706;12.340;2023-09-12T14:06:25;10.57;;;6.00;;
21621;SDS011;10973;46.706;12.340;2023-09-12T14:08:54;11.60;;;6.15;;
21621;SDS011;10973;46.706;12.340;2023-09-12T14:11:23;7.47;;;5.68;;
21621;SDS011;10973;46.706;12.340;2023-09-12T14:14:01;7.07;;;6.43;;
21621;SDS011;10973;46.706;12.340;2023-09-12T14:16:33;7.07;;;6.00;;
21621;SDS011;10973;46.706;12.340;2023-09-12T14:19:01;11.25;;;6.80;;
21621;SDS011;10973;46.706;12.340;2023-09-12T14:21:29;7.97;;;5.63;;
21621;SDS011;10973;46.706;12.340;2023-09-12T14:23:57;7.03;;;5.57;;
21621;SDS011;10973;46.706;12.340;2023-09-12T14:26:27;10.88;;;6.72;;
21621;SDS011;10973;46.706;12.340;2023-09-12T14:28:55;9.57;;;6.03;;
21621;SDS011;10973;46.706;12.340;2023-09-12T14:31:23;8.48;;;6.47;;
21621;SDS011;10973;46.706;12.340;2023-09-12T14:33:50;7.95;;;6.53;;
21621;SDS011;10973;46.706;12.340;2023-09-12T14:36:18;10.68;;;6.57;;
21621;SDS011;10973;46.706;12.340;2023-09-12T14:38:45;8.52;;;6.22;;
21621;SDS011;10973;46.706;12.340;2023-09-12T14:41:13;7.85;;;5.70;;
21621;SDS011;10973;46.706;12.340;2023-09-12T14:43:40;9.55;;;6.70;;
21621;SDS011;10973;46.706;12.340;2023-09-12T14:46:08;8.23;;;6.18;;
21621;SDS011;10973;46.706;12.340;2023-09-12T14:48:36;6.53;;;5.78;;
21621;SDS011;10973;46.706;12.340;2023-09-12T14:51:08;9.65;;;6.10;;